Time;durP1;ratioP1;P1;durP2;ratioP2;P2;SDS_P1;SDS_P2;PMS_P1;PMS_P2;Temp;Humidity;BMP_temperature;BMP_pressure;BME280_temperature;BME280_humidity;BME280_pressure;Samples;Min_cycle;Max_cycle;Signal;HPM_P1;HPM_P2
2022/07/21 00:00:22;;;;;;;14.25;8.18;;;18.90;99.90;;;;;;5043204;28;20530;-80
2022/07/21 00:02:49;;;;;;;16.70;7.93;;;19.50;99.90;;;;;;5042587;28;20045;-79
2022/07/21 00:05:15;;;;;;;16.05;8.02;;;19.10;99.90;;;;;;5026233;28;20094;-80
2022/07/21 00:07:42;;;;;;;15.40;7.93;;;19.10;99.90;;;;;;5042753;28;20083;-80
2022/07/21 00:10:09;;;;;;;16.58;8.32;;;18.90;99.90;;;;;;5041918;28;20532;-80
2022/07/21 00:12:35;;;;;;;16.30;9.00;;;19.00;99.90;;;;;;5025892;28;20071;-80
2022/07/21 00:15:02;;;;;;;13.25;8.63;;;18.80;99.90;;;;;;5025868;28;20144;-80
2022/07/21 00:17:27;;;;;;;13.50;8.48;;;18.80;99.90;;;;;;5042260;28;20844;-80
2022/07/21 00:19:53;;;;;;;16.50;9.77;;;20.00;99.90;;;;;;5043452;28;20585;-80
2022/07/21 00:22:20;;;;;;;15.88;9.95;;;19.60;99.90;;;;;;5042416;28;20440;-85
2022/07/21 00:24:49;;;;;;;16.98;10.98;;;20.90;99.90;;;;;;5025541;28;20492;-84
2022/07/21 00:27:15;;;;;;;17.95;10.43;;;19.10;99.90;;;;;;5042891;28;20059;-82
2022/07/21 00:29:42;;;;;;;17.67;11.18;;;18.60;99.90;;;;;;5015484;28;20092;-83
2022/07/21 00:32:16;;;;;;;17.38;10.70;;;18.90;99.90;;;;;;5022048;28;20065;-83
2022/07/21 00:34:42;;;;;;;15.70;10.68;;;18.80;99.90;;;;;;5005080;28;20080;-83
2022/07/21 00:37:08;;;;;;;17.33;11.25;;;18.90;99.90;;;;;;5005613;28;20084;-83
2022/07/21 00:39:34;;;;;;;19.13;11.10;;;18.70;99.90;;;;;;5022393;28;20084;-83
2022/07/21 00:42:04;;;;;;;16.58;11.57;;;19.70;99.90;;;;;;5022201;28;20134;-82
2022/07/21 00:44:40;;;;;;;17.75;11.30;;;18.70;99.90;;;;;;5021964;28;20741;-82
2022/07/21 00:47:06;;;;;;;16.88;11.40;;;18.60;99.90;;;;;;5006653;28;20096;-83
2022/07/21 00:49:34;;;;;;;17.50;11.00;;;18.80;99.90;;;;;;5022451;28;20486;-84
2022/07/21 00:52:05;;;;;;;21.67;12.73;;;18.80;99.90;;;;;;5006362;28;20041;-83
2022/07/21 00:54:36;;;;;;;20.60;11.68;;;18.80;99.90;;;;;;5005040;28;20109;-83
2022/07/21 00:57:43;;;;;;;19.65;12.27;;;18.80;99.90;;;;;;5023109;28;20103;-85
2022/07/21 01:01:08;;;;;;;20.40;12.05;;;18.90;99.90;;;;;;4937814;28;21077;-84
2022/07/21 01:04:17;;;;;;;21.38;13.02;;;19.10;99.90;;;;;;4926111;28;20058;-84
2022/07/21 01:07:01;;;;;;;20.10;12.38;;;18.90;99.90;;;;;;4901190;29;20067;-84
2022/07/21 01:09:54;;;;;;;18.60;13.63;;;18.70;99.90;;;;;;4886190;29;20056;-84
2022/07/21 01:12:21;;;;;;;19.80;13.02;;;18.80;99.90;;;;;;4869611;29;20056;-84
2022/07/21 01:15:34;;;;;;;;;;;;;;;;;;;;;
2022/07/21 01:18:47;;;;;;;19.05;12.35;;;19.20;99.90;;;;;;4882443;29;20057;-85
2022/07/21 01:22:11;;;;;;;;;;;;;;;;;;;;;
2022/07/21 01:25:10;;;;;;;16.90;11.35;;;17.90;99.90;;;;;;4833426;29;20581;-86
2022/07/21 01:27:51;;;;;;;18.17;11.80;;;19.20;99.90;;;;;;4819702;29;20072;-87
2022/07/21 01:30:37;;;;;;;17.85;12.38;;;20.50;99.90;;;;;;4830043;29;20061;-87
2022/07/21 01:33:48;;;;;;;21.70;14.00;;;18.40;99.90;;;;;;4817896;29;20211;-87
2022/07/21 01:36:55;;;;;;;19.52;13.10;;;19.50;99.90;;;;;;4814920;29;20085;-88
2022/07/21 01:42:09;;;;;;;20.63;13.52;;;18.70;99.90;;;;;;4896964;29;20418;-86
2022/07/21 01:44:35;;;;;;;18.48;13.10;;;20.70;99.90;;;;;;4878805;29;20051;-86
2022/07/21 01:47:03;;;;;;;21.05;13.35;;;18.50;99.90;;;;;;4890422;29;20071;-86
2022/07/21 01:49:34;;;;;;;17.95;13.68;;;19.40;99.90;;;;;;4889603;29;20067;-85
2022/07/21 01:52:05;;;;;;;20.42;13.63;;;18.20;99.90;;;;;;4909508;29;20059;-86
2022/07/21 01:54:33;;;;;;;25.10;15.82;;;18.30;99.90;;;;;;4893375;28;20569;-85
2022/07/21 01:57:02;;;;;;;18.65;14.60;;;17.90;99.90;;;;;;4957320;28;20050;-85
2022/07/21 01:59:33;;;;;;;19.63;13.43;;;18.80;99.90;;;;;;4984869;28;20270;-85
2022/07/21 02:02:13;;;;;;;22.20;13.82;;;18.60;99.90;;;;;;4984339;28;20076;-86
2022/07/21 02:04:44;;;;;;;21.63;15.48;;;18.50;99.90;;;;;;4985353;28;20180;-86
2022/07/21 02:07:41;;;;;;;23.05;15.35;;;19.00;99.90;;;;;;4968479;28;20057;-86
2022/07/21 02:28:38;;;;;;;27.35;18.92;;;19.50;99.90;;;;;;5002773;23;20052;-55
2022/07/21 02:31:04;;;;;;;28.52;18.25;;;18.20;99.90;;;;;;5006597;28;20840;-55
2022/07/21 02:33:29;;;;;;;31.20;20.17;;;18.10;99.90;;;;;;5010226;28;20034;-55
2022/07/21 02:35:55;;;;;;;32.10;20.38;;;19.30;99.90;;;;;;5001600;28;20060;-54
2022/07/21 02:38:21;;;;;;;32.40;20.08;;;18.40;99.90;;;;;;5004824;28;20069;-50
2022/07/21 02:40:46;;;;;;;33.28;18.90;;;19.80;99.90;;;;;;5001810;28;20046;-51
2022/07/21 02:43:12;;;;;;;30.02;20.05;;;18.10;99.90;;;;;;5002092;28;20045;-52
2022/07/21 02:45:39;;;;;;;31.92;20.25;;;18.20;99.90;;;;;;5001490;28;20042;-51
2022/07/21 02:48:10;;;;;;;27.20;20.30;;;18.20;99.90;;;;;;5010775;28;20055;-53
2022/07/21 02:50:39;;;;;;;27.83;19.63;;;18.70;99.90;;;;;;5001661;28;20172;-48
2022/07/21 02:53:11;;;;;;;26.10;19.00;;;18.70;99.90;;;;;;4983521;28;20525;-53
2022/07/21 02:55:37;;;;;;;29.15;19.15;;;17.90;99.90;;;;;;5001083;28;20058;-52
2022/07/21 02:58:27;;;;;;;32.65;20.75;;;18.30;99.90;;;;;;5008642;28;20046;-54
2022/07/21 03:01:05;;;;;;;27.80;19.77;;;18.40;99.90;;;;;;5001500;28;20637;-55
2022/07/21 03:03:34;;;;;;;33.05;21.08;;;18.30;99.90;;;;;;5005639;28;20042;-53
2022/07/21 03:06:00;;;;;;;33.30;21.73;;;19.30;99.90;;;;;;5001795;28;20057;-51
2022/07/21 03:08:27;;;;;;;32.78;21.77;;;18.20;99.90;;;;;;5002756;28;20050;-50
2022/07/21 03:10:55;;;;;;;32.35;21.17;;;18.20;99.90;;;;;;5001986;28;20799;-53
2022/07/21 03:13:21;;;;;;;30.65;22.23;;;18.80;99.90;;;;;;5001997;28;20042;-53
2022/07/21 03:15:46;;;;;;;32.28;21.52;;;20.30;99.90;;;;;;5001448;28;20072;-50
2022/07/21 03:18:15;;;;;;;34.40;22.90;;;18.30;99.90;;;;;;5001662;28;20068;-53
2022/07/21 03:20:42;;;;;;;32.47;21.67;;;18.20;99.90;;;;;;5001582;28;20418;-53
2022/07/21 03:23:08;;;;;;;35.85;23.30;;;18.10;99.90;;;;;;4992395;28;20089;-51
2022/07/21 03:25:35;;;;;;;30.73;22.42;;;18.30;99.90;;;;;;5001262;28;20479;-52
2022/07/21 03:28:02;;;;;;;27.88;20.15;;;18.60;99.90;;;;;;5001162;28;20120;-50
2022/07/21 03:30:28;;;;;;;26.30;19.73;;;18.30;99.90;;;;;;5001289;28;20112;-51
2022/07/21 03:32:54;;;;;;;28.40;19.85;;;18.80;99.90;;;;;;5001688;28;20699;-50
2022/07/21 03:35:20;;;;;;;28.05;20.40;;;18.30;99.90;;;;;;5001424;28;20030;-51
2022/07/21 03:37:53;;;;;;;27.10;19.55;;;18.30;99.90;;;;;;5000896;28;20046;-52
2022/07/21 03:40:23;;;;;;;26.67;20.10;;;18.40;99.90;;;;;;4982928;28;20053;-52
2022/07/21 03:42:50;;;;;;;31.05;21.75;;;18.90;99.90;;;;;;5000764;28;20082;-53
2022/07/21 03:45:16;;;;;;;23.67;18.65;;;18.40;99.90;;;;;;5000810;28;20389;-50
2022/07/21 03:47:42;;;;;;;20.42;18.30;;;19.80;99.90;;;;;;5000416;28;20042;-52
2022/07/21 03:50:09;;;;;;;24.90;19.48;;;19.60;99.90;;;;;;5000680;28;20049;-54
2022/07/21 03:52:34;;;;;;;27.65;20.77;;;18.40;99.90;;;;;;5000425;28;20429;-54
2022/07/21 03:55:09;;;;;;;31.25;20.88;;;18.20;99.90;;;;;;5006999;28;20053;-53
2022/07/21 03:57:46;;;;;;;23.67;20.20;;;19.00;99.90;;;;;;5000328;28;20139;-50
2022/07/21 04:00:15;;;;;;;25.90;20.75;;;18.20;99.90;;;;;;5000146;28;20115;-53
2022/07/21 04:02:45;;;;;;;34.65;22.42;;;18.10;99.90;;;;;;4999867;28;20042;-54
2022/07/21 04:05:12;;;;;;;23.50;20.83;;;18.80;99.90;;;;;;4985300;28;20524;-53
2022/07/21 04:07:44;;;;;;;29.55;22.08;;;19.40;99.90;;;;;;5006864;28;20053;-53
2022/07/21 04:10:12;;;;;;;28.90;22.45;;;20.20;99.90;;;;;;5000082;28;20358;-54
2022/07/21 04:12:38;;;;;;;41.17;26.95;;;18.20;99.90;;;;;;5004675;28;20068;-55
2022/07/21 04:15:06;;;;;;;39.97;26.50;;;19.30;99.90;;;;;;5001114;28;20053;-56
2022/07/21 04:17:32;;;;;;;39.85;25.58;;;18.30;99.90;;;;;;4999662;28;20038;-56
2022/07/21 04:19:58;;;;;;;35.90;26.63;;;18.40;99.90;;;;;;5003188;28;20042;-53
2022/07/21 04:22:24;;;;;;;37.45;26.48;;;18.20;99.90;;;;;;4999802;28;20800;-54
2022/07/21 04:24:50;;;;;;;38.42;27.33;;;19.60;99.90;;;;;;4999811;28;20278;-53
2022/07/21 04:27:16;;;;;;;43.28;29.10;;;18.30;99.90;;;;;;4999759;28;20093;-54
2022/07/21 04:29:42;;;;;;;42.50;30.05;;;18.40;99.90;;;;;;5003159;28;20373;-55
2022/07/21 04:32:07;;;;;;;42.70;29.27;;;18.40;99.90;;;;;;5000173;28;20053;-52
2022/07/21 04:34:33;;;;;;;43.58;29.30;;;18.20;99.90;;;;;;5000372;28;20499;-54
2022/07/21 04:36:59;;;;;;;47.10;32.75;;;20.00;99.90;;;;;;5000522;28;20125;-55
2022/07/21 04:39:25;;;;;;;49.20;32.72;;;16.30;99.90;;;;;;5000275;28;20124;-55
2022/07/21 04:41:52;;;;;;;45.13;32.35;;;20.00;99.90;;;;;;5000562;28;20045;-54
2022/07/21 04:44:18;;;;;;;38.75;30.67;;;19.00;99.90;;;;;;5000412;28;20151;-55
2022/07/21 04:46:43;;;;;;;41.83;31.40;;;19.10;99.90;;;;;;5000166;28;20919;-53
2022/07/21 04:49:09;;;;;;;34.45;27.25;;;19.40;99.90;;;;;;5000168;28;20100;-54
2022/07/21 04:51:37;;;;;;;42.20;30.58;;;18.60;99.90;;;;;;5012959;28;20446;-54
2022/07/21 04:54:02;;;;;;;36.70;29.48;;;18.70;99.90;;;;;;5000516;28;20049;-53
2022/07/21 04:56:28;;;;;;;35.60;30.02;;;18.50;99.90;;;;;;5000146;28;20045;-55
2022/07/21 04:58:54;;;;;;;29.35;25.38;;;18.40;99.90;;;;;;5002445;28;20369;-53
2022/07/21 05:01:19;;;;;;;32.42;27.52;;;18.60;99.90;;;;;;5003344;28;20132;-55
2022/07/21 05:03:45;;;;;;;30.55;26.40;;;18.40;99.90;;;;;;4999851;28;20045;-54
2022/07/21 05:06:11;;;;;;;35.03;27.55;;;18.50;99.90;;;;;;5009699;28;20102;-54
2022/07/21 05:08:39;;;;;;;33.25;27.52;;;18.40;99.90;;;;;;5009953;28;20046;-57
2022/07/21 05:11:05;;;;;;;32.25;28.02;;;18.70;99.90;;;;;;4999691;28;20049;-55
2022/07/21 05:13:30;;;;;;;30.83;25.95;;;18.60;99.90;;;;;;4999169;28;20041;-54
2022/07/21 05:15:58;;;;;;;30.27;24.52;;;19.50;99.90;;;;;;4999416;28;20132;-56
2022/07/21 05:18:24;;;;;;;30.40;24.90;;;18.60;99.90;;;;;;4999453;28;20045;-55
2022/07/21 05:20:50;;;;;;;26.98;23.55;;;18.90;99.90;;;;;;5006221;28;20041;-55
2022/07/21 05:23:15;;;;;;;24.80;21.92;;;18.50;99.90;;;;;;4999083;28;20506;-56
2022/07/21 05:25:43;;;;;;;28.15;24.13;;;18.50;99.90;;;;;;5002776;28;20414;-56
2022/07/21 05:28:09;;;;;;;29.90;24.88;;;18.40;99.90;;;;;;5006370;28;20168;-56
2022/07/21 05:30:35;;;;;;;28.67;24.00;;;18.40;99.90;;;;;;5012245;28;20076;-56
2022/07/21 05:33:02;;;;;;;28.63;23.13;;;19.20;99.90;;;;;;5002667;28;20132;-57
2022/07/21 05:35:28;;;;;;;27.95;24.77;;;18.50;99.90;;;;;;5010933;28;20099;-56
2022/07/21 05:37:54;;;;;;;30.38;25.25;;;18.10;99.90;;;;;;4984986;28;20053;-54
2022/07/21 05:40:20;;;;;;;31.00;24.95;;;18.60;99.90;;;;;;5002673;28;20579;-55
2022/07/21 05:42:45;;;;;;;29.38;25.42;;;18.20;99.90;;;;;;5003195;28;20048;-54
2022/07/21 05:45:12;;;;;;;25.88;22.98;;;18.30;99.90;;;;;;5002848;28;20042;-56
2022/07/21 05:47:38;;;;;;;23.40;20.98;;;18.80;99.90;;;;;;5002975;28;20053;-56
2022/07/21 05:50:06;;;;;;;23.63;21.08;;;18.10;99.90;;;;;;5003041;28;20144;-56
2022/07/21 05:52:32;;;;;;;24.73;22.02;;;18.10;99.90;;;;;;5002568;28;20440;-57
2022/07/21 05:54:58;;;;;;;26.23;22.23;;;18.50;99.90;;;;;;5003017;28;20046;-56
2022/07/21 05:57:25;;;;;;;27.08;22.90;;;18.10;99.90;;;;;;5003236;28;20409;-56
2022/07/21 05:59:53;;;;;;;27.10;23.17;;;18.20;99.90;;;;;;5003055;28;20038;-59
2022/07/21 06:02:18;;;;;;;29.50;23.63;;;18.50;99.90;;;;;;5003170;28;20510;-55
2022/07/21 06:04:44;;;;;;;29.77;24.77;;;18.10;99.90;;;;;;5008641;28;20042;-55
2022/07/21 06:07:12;;;;;;;30.80;26.55;;;18.50;99.90;;;;;;5003358;28;21121;-54
2022/07/21 06:09:37;;;;;;;29.60;26.38;;;20.00;99.90;;;;;;4985174;28;20081;-56
2022/07/21 06:12:03;;;;;;;32.20;26.85;;;20.60;99.90;;;;;;5002918;28;20080;-55
2022/07/21 06:14:29;;;;;;;31.80;25.65;;;18.50;99.90;;;;;;5003007;28;20061;-54
2022/07/21 06:16:54;;;;;;;26.95;24.10;;;18.60;99.90;;;;;;5007289;28;20080;-56
2022/07/21 06:19:20;;;;;;;30.35;24.50;;;18.50;99.90;;;;;;5011596;28;20124;-55
2022/07/21 06:21:46;;;;;;;28.23;24.48;;;18.50;99.90;;;;;;5002554;28;20510;-53
2022/07/21 06:24:12;;;;;;;27.90;24.75;;;18.50;99.90;;;;;;5002391;28;20485;-56
2022/07/21 06:26:38;;;;;;;32.20;25.45;;;18.50;99.90;;;;;;5001751;28;20132;-55
2022/07/21 06:29:04;;;;;;;34.47;27.40;;;20.70;99.90;;;;;;5001466;28;20185;-56
2022/07/21 06:31:30;;;;;;;27.25;24.23;;;19.00;99.90;;;;;;5001852;28;20166;-56
2022/07/21 06:33:55;;;;;;;27.52;24.13;;;19.50;99.90;;;;;;5001855;28;20046;-56
2022/07/21 06:36:21;;;;;;;32.97;25.35;;;18.70;99.90;;;;;;5001956;28;20156;-55
2022/07/21 06:38:49;;;;;;;31.85;25.27;;;20.70;99.90;;;;;;5001098;28;20046;-54
2022/07/21 06:41:14;;;;;;;28.58;25.63;;;18.80;99.90;;;;;;5001633;28;20498;-55
2022/07/21 06:43:40;;;;;;;32.83;26.27;;;18.60;99.90;;;;;;5001307;28;20049;-56
2022/07/21 06:46:07;;;;;;;34.53;26.40;;;18.80;99.90;;;;;;5001619;28;20053;-55
2022/07/21 06:48:35;;;;;;;37.47;29.42;;;18.60;99.90;;;;;;5005636;28;20041;-51
2022/07/21 06:51:01;;;;;;;31.63;27.58;;;18.80;99.90;;;;;;5001286;28;20053;-53
2022/07/21 06:53:26;;;;;;;31.15;27.67;;;19.00;99.90;;;;;;5001676;28;21261;-55
2022/07/21 06:55:54;;;;;;;35.75;27.40;;;18.60;99.90;;;;;;5000751;28;20244;-53
2022/07/21 06:58:24;;;;;;;28.98;25.65;;;19.20;99.90;;;;;;5001149;28;20056;-52
2022/07/21 07:00:50;;;;;;;29.80;25.02;;;18.90;99.90;;;;;;5000977;28;20050;-54
2022/07/21 07:03:18;;;;;;;34.75;27.70;;;19.10;99.90;;;;;;5001503;28;20040;-52
2022/07/21 07:05:45;;;;;;;32.10;27.15;;;17.40;99.90;;;;;;5002235;28;20050;-51
2022/07/21 07:08:12;;;;;;;30.65;27.45;;;19.20;99.90;;;;;;5003796;28;20041;-50
2022/07/21 07:10:43;;;;;;;32.22;28.63;;;21.30;99.90;;;;;;4985652;28;20060;-53
2022/07/21 07:13:10;;;;;;;29.60;26.40;;;19.50;99.90;;;;;;5001077;28;20489;-54
2022/07/21 07:15:35;;;;;;;33.08;29.45;;;19.30;99.90;;;;;;5001823;28;20045;-52
2022/07/21 07:18:01;;;;;;;32.05;27.08;;;19.50;99.90;;;;;;5001374;28;20038;-52
2022/07/21 07:20:27;;;;;;;30.45;26.73;;;19.60;99.90;;;;;;5001575;28;20037;-51
2022/07/21 07:22:53;;;;;;;32.10;28.80;;;19.50;99.90;;;;;;4984027;28;20050;-51
2022/07/21 07:25:18;;;;;;;33.03;28.23;;;19.60;99.90;;;;;;5001319;28;20113;-54
2022/07/21 07:27:46;;;;;;;31.98;28.13;;;19.40;99.90;;;;;;5000977;28;20132;-52
2022/07/21 07:30:12;;;;;;;30.98;27.65;;;19.60;99.90;;;;;;5014251;28;20041;-50
2022/07/21 07:32:39;;;;;;;29.23;26.20;;;19.60;99.90;;;;;;4986231;28;20689;-51
2022/07/21 07:35:08;;;;;;;28.90;25.80;;;21.50;99.90;;;;;;5001041;28;20037;-52
2022/07/21 07:37:38;;;;;;;29.25;26.20;;;19.70;99.90;;;;;;5000682;28;20042;-51
2022/07/21 07:40:11;;;;;;;29.05;25.85;;;19.80;99.90;;;;;;5000859;28;20528;-52
2022/07/21 07:42:38;;;;;;;30.05;26.88;;;19.90;99.90;;;;;;4983143;28;20505;-54
2022/07/21 07:45:05;;;;;;;31.63;26.17;;;19.70;99.90;;;;;;5000502;28;20128;-51
2022/07/21 07:47:33;;;;;;;28.90;26.02;;;19.70;99.90;;;;;;5000379;28;20046;-51
2022/07/21 07:49:59;;;;;;;28.25;25.40;;;22.10;99.90;;;;;;4999579;28;20030;-52
2022/07/21 07:52:25;;;;;;;28.13;25.23;;;19.80;99.90;;;;;;5000334;28;20462;-52
2022/07/21 07:54:51;;;;;;;28.25;25.45;;;20.40;99.90;;;;;;5003371;28;20071;-51
2022/07/21 07:57:17;;;;;;;28.05;25.15;;;19.60;99.90;;;;;;5008558;28;20093;-52
2022/07/21 07:59:44;;;;;;;30.15;27.05;;;19.60;99.90;;;;;;4999971;28;20052;-50
2022/07/21 08:02:10;;;;;;;28.30;25.48;;;19.50;99.90;;;;;;5000320;28;20053;-54
2022/07/21 08:04:36;;;;;;;28.88;26.00;;;19.40;99.90;;;;;;4999918;28;20065;-50
2022/07/21 08:07:03;;;;;;;30.05;26.40;;;19.50;99.90;;;;;;5000100;28;20045;-54
2022/07/21 08:09:29;;;;;;;31.52;25.48;;;19.60;99.90;;;;;;5000139;28;20529;-53
2022/07/21 08:11:54;;;;;;;29.02;26.15;;;20.40;99.90;;;;;;5000135;28;20402;-52
2022/07/21 08:14:20;;;;;;;30.42;27.10;;;19.50;99.90;;;;;;5005657;28;20045;-51
2022/07/21 08:16:48;;;;;;;31.10;27.42;;;19.50;99.90;;;;;;5002100;28;20686;-50
2022/07/21 08:19:14;;;;;;;30.65;27.40;;;19.60;99.90;;;;;;4966256;28;20084;-54
2022/07/21 08:21:40;;;;;;;34.22;26.65;;;19.50;99.90;;;;;;4999228;28;20427;-51
2022/07/21 08:24:08;;;;;;;32.33;28.77;;;19.60;99.90;;;;;;4992538;28;20919;-52
2022/07/21 08:26:34;;;;;;;29.77;26.65;;;19.50;99.90;;;;;;4983083;28;20085;-52
2022/07/21 08:29:00;;;;;;;31.95;28.52;;;19.60;99.90;;;;;;4999983;28;20145;-54
2022/07/21 08:31:26;;;;;;;31.90;28.52;;;20.40;99.90;;;;;;5000536;28;20124;-52
2022/07/21 08:33:53;;;;;;;30.38;27.23;;;19.80;99.90;;;;;;5000088;28;20331;-52
2022/07/21 08:36:19;;;;;;;32.65;29.27;;;19.60;99.90;;;;;;5000007;28;20041;-52
2022/07/21 08:38:47;;;;;;;32.25;28.83;;;19.70;99.90;;;;;;5000457;28;20117;-50
2022/07/21 08:41:12;;;;;;;36.15;31.15;;;19.70;99.90;;;;;;4999969;28;20133;-49
2022/07/21 08:43:38;;;;;;;33.22;29.85;;;19.90;99.90;;;;;;5000102;28;20051;-51
2022/07/21 08:46:04;;;;;;;35.15;30.40;;;20.00;99.90;;;;;;5000180;28;20041;-54
2022/07/21 08:48:31;;;;;;;35.08;30.80;;;19.80;99.90;;;;;;4999827;28;20518;-52
2022/07/21 08:50:57;;;;;;;38.08;32.33;;;19.90;99.90;;;;;;5012914;28;20107;-51
2022/07/21 08:53:24;;;;;;;38.88;32.45;;;20.00;99.90;;;;;;5000862;28;20042;-54
2022/07/21 08:55:49;;;;;;;37.35;31.83;;;22.10;99.90;;;;;;5000005;28;20120;-52
2022/07/21 08:58:18;;;;;;;38.33;32.55;;;20.00;99.90;;;;;;5000277;28;20057;-51
2022/07/21 09:00:49;;;;;;;39.03;34.70;;;19.80;99.90;;;;;;4999573;28;20042;-52
2022/07/21 09:03:19;;;;;;;38.50;33.70;;;20.00;99.90;;;;;;5003990;28;20397;-50
2022/07/21 09:06:04;;;;;;;38.13;33.10;;;20.00;99.90;;;;;;5003398;28;21176;-49
2022/07/21 09:08:44;;;;;;;38.28;33.78;;;20.10;99.90;;;;;;5003060;28;20125;-50
2022/07/21 09:11:30;;;;;;;38.42;34.35;;;20.20;99.90;;;;;;5003204;28;20534;-49
2022/07/21 09:14:05;;;;;;;38.47;33.88;;;20.20;99.90;;;;;;5002693;28;20058;-51
2022/07/21 09:16:39;;;;;;;41.38;36.78;;;20.20;99.90;;;;;;5003098;28;20045;-50
2022/07/21 09:19:07;;;;;;;41.35;36.08;;;20.20;99.90;;;;;;5012439;28;20093;-53
2022/07/21 09:21:36;;;;;;;49.08;37.08;;;18.20;99.90;;;;;;5003074;28;20419;-50
2022/07/21 09:24:11;;;;;;;43.85;38.67;;;20.20;99.90;;;;;;5002612;28;20133;-49
2022/07/21 09:26:59;;;;;;;48.47;37.75;;;20.10;99.90;;;;;;5002648;28;20358;-51
2022/07/21 09:29:26;;;;;;;42.15;37.22;;;20.00;99.90;;;;;;5004969;28;20054;-51
2022/07/21 09:31:53;;;;;;;44.60;39.88;;;20.70;99.90;;;;;;5002980;28;20579;-44
2022/07/21 09:34:20;;;;;;;45.65;40.75;;;20.10;99.90;;;;;;5002467;28;20132;-42
2022/07/21 09:36:58;;;;;;;43.05;38.70;;;20.00;99.90;;;;;;5002641;28;20050;-45
2022/07/21 09:39:45;;;;;;;43.30;38.80;;;20.10;99.90;;;;;;5003245;28;20050;-42
2022/07/21 09:42:26;;;;;;;55.47;40.67;;;20.60;99.90;;;;;;5015345;28;20080;-43
2022/07/21 09:44:58;;;;;;;44.85;40.00;;;19.70;99.90;;;;;;5002890;28;20038;-42
2022/07/21 09:47:26;;;;;;;48.38;41.95;;;19.80;99.90;;;;;;5003299;28;20128;-44
2022/07/21 09:49:52;;;;;;;47.08;41.83;;;21.90;99.90;;;;;;5003269;28;20445;-43
2022/07/21 09:52:20;;;;;;;46.63;41.90;;;21.00;99.90;;;;;;5003313;28;20068;-44
2022/07/21 09:54:46;;;;;;;51.40;41.60;;;19.70;99.90;;;;;;5002666;28;20096;-43
2022/07/21 09:57:12;;;;;;;48.13;41.88;;;20.30;99.90;;;;;;5009522;28;20042;-44
2022/07/21 09:59:43;;;;;;;47.10;41.92;;;19.70;99.90;;;;;;5002746;28;20064;-44
2022/07/21 10:02:17;;;;;;;45.42;40.60;;;21.80;99.90;;;;;;4984966;28;21067;-43
2022/07/21 10:04:46;;;;;;;48.78;43.50;;;19.80;99.90;;;;;;5003179;28;20052;-46
2022/07/21 10:07:15;;;;;;;57.72;42.20;;;19.60;99.90;;;;;;5003172;28;20042;-44
2022/07/21 10:09:40;;;;;;;44.75;39.85;;;19.50;99.90;;;;;;5002745;28;20042;-49
2022/07/21 10:12:07;;;;;;;46.30;41.40;;;19.40;99.90;;;;;;5002563;28;20050;-48
2022/07/21 10:14:35;;;;;;;46.17;41.22;;;19.80;99.90;;;;;;5002131;28;20045;-44
2022/07/21 10:17:02;;;;;;;47.53;42.35;;;19.80;99.90;;;;;;5008464;28;20129;-45
2022/07/21 10:19:45;;;;;;;47.38;42.33;;;20.40;99.90;;;;;;5009664;28;20053;-48
2022/07/21 10:22:39;;;;;;;49.45;43.05;;;21.40;99.90;;;;;;5002700;28;20057;-45
2022/07/21 10:25:06;;;;;;;49.92;44.47;;;19.50;99.90;;;;;;5002152;28;20485;-45
2022/07/21 10:27:32;;;;;;;52.38;42.60;;;20.30;99.90;;;;;;5002443;28;20057;-45
2022/07/21 10:30:00;;;;;;;49.13;40.75;;;19.60;99.90;;;;;;5001804;28;20038;-45
2022/07/21 10:32:33;;;;;;;44.92;40.20;;;19.60;99.90;;;;;;5005049;28;20050;-49
2022/07/21 10:35:01;;;;;;;50.75;40.22;;;19.70;99.90;;;;;;5011637;28;20046;-46
2022/07/21 10:37:39;;;;;;;45.13;40.22;;;19.70;99.90;;;;;;5001617;28;20061;-48
2022/07/21 10:40:31;;;;;;;54.40;40.55;;;22.10;99.90;;;;;;5001669;28;20501;-45
2022/07/21 10:43:00;;;;;;;43.22;37.72;;;20.00;99.90;;;;;;5000889;28;20052;-49
2022/07/21 10:45:37;;;;;;;41.75;37.40;;;21.90;99.90;;;;;;5006042;28;20046;-49
2022/07/21 10:48:05;;;;;;;38.28;34.20;;;20.10;99.90;;;;;;5001115;28;20050;-46
2022/07/21 10:50:32;;;;;;;41.80;36.30;;;20.00;99.90;;;;;;5001558;28;20124;-47
2022/07/21 10:52:59;;;;;;;41.03;32.75;;;20.20;99.90;;;;;;5001479;28;20171;-46
2022/07/21 10:55:27;;;;;;;35.58;30.70;;;20.10;99.90;;;;;;5001409;28;20054;-47
2022/07/21 10:58:28;;;;;;;35.67;31.88;;;20.40;99.90;;;;;;5001338;28;20038;-49
2022/07/21 11:01:01;;;;;;;34.97;30.38;;;20.30;99.90;;;;;;4994087;28;20099;-48
2022/07/21 11:03:30;;;;;;;32.08;27.80;;;20.10;99.90;;;;;;5001067;28;20129;-45
2022/07/21 11:06:21;;;;;;;31.50;26.27;;;20.00;99.90;;;;;;5001379;28;20182;-48
2022/07/21 11:08:52;;;;;;;26.27;23.25;;;20.30;99.90;;;;;;5012265;28;20049;-49
2022/07/21 11:11:26;;;;;;;22.33;20.13;;;20.10;99.90;;;;;;5006007;28;20092;-43
2022/07/21 11:14:12;;;;;;;22.48;20.15;;;20.30;99.90;;;;;;5001198;28;20146;-48
2022/07/21 11:16:48;;;;;;;23.95;19.42;;;20.20;99.90;;;;;;5000823;28;20125;-45
2022/07/21 11:19:59;;;;;;;21.98;18.92;;;20.30;99.90;;;;;;5001785;28;20137;-48
2022/07/21 11:22:27;;;;;;;25.60;18.98;;;20.30;99.90;;;;;;4998488;28;20058;-44
2022/07/21 11:25:05;;;;;;;22.08;19.77;;;20.40;99.90;;;;;;5001486;28;20041;-47
2022/07/21 11:27:36;;;;;;;22.55;16.88;;;20.30;99.90;;;;;;5001357;28;20188;-44
2022/07/21 11:30:08;;;;;;;19.45;17.40;;;20.60;99.90;;;;;;5006656;28;20092;-46
2022/07/21 11:32:36;;;;;;;20.58;17.10;;;20.60;99.90;;;;;;4984331;28;20045;-44
2022/07/21 11:35:06;;;;;;;17.42;15.57;;;20.60;99.90;;;;;;5001321;28;20559;-45
2022/07/21 11:37:36;;;;;;;16.88;15.07;;;20.60;99.90;;;;;;5001440;28;20041;-45
2022/07/21 11:40:04;;;;;;;17.30;14.98;;;20.40;99.90;;;;;;5001161;28;20100;-47
2022/07/21 11:42:30;;;;;;;16.63;14.93;;;20.60;99.90;;;;;;4983319;28;21110;-49
2022/07/21 11:44:58;;;;;;;29.40;15.00;;;20.50;99.90;;;;;;5007846;28;20429;-44
2022/07/21 11:47:25;;;;;;;33.42;14.32;;;20.70;99.90;;;;;;4989170;28;20053;-44
2022/07/21 11:49:57;;;;;;;15.90;13.23;;;20.80;99.90;;;;;;5000814;28;20046;-49
2022/07/21 11:52:27;;;;;;;;;;;22.70;99.90;;;;;;5000924;28;20126;-46
2022/07/21 11:54:54;;;;;;;16.92;14.93;;;20.90;99.90;;;;;;4999090;28;19925;-45
2022/07/21 11:57:22;;;;;;;19.05;15.18;;;21.00;99.90;;;;;;4999825;28;20046;-49
2022/07/21 11:59:49;;;;;;;17.58;14.93;;;23.20;99.90;;;;;;4999857;28;20073;-49
2022/07/21 12:02:20;;;;;;;15.98;13.48;;;21.00;99.90;;;;;;5000348;28;20052;-48
2022/07/21 12:04:55;;;;;;;18.20;12.95;;;21.30;99.90;;;;;;4999861;28;20081;-48
2022/07/21 12:07:36;;;;;;;18.20;14.52;;;21.40;99.90;;;;;;5000337;28;20052;-45
2022/07/21 12:10:10;;;;;;;19.27;16.48;;;21.40;99.90;;;;;;4999885;28;20049;-48
2022/07/21 12:12:44;;;;;;;16.58;14.98;;;21.40;99.90;;;;;;4999866;28;20429;-47
2022/07/21 12:15:28;;;;;;;18.38;16.02;;;21.40;99.90;;;;;;4999986;28;20050;-46
2022/07/21 12:17:58;;;;;;;14.88;13.27;;;21.90;99.90;;;;;;5000000;28;20050;-44
2022/07/21 12:20:37;;;;;;;18.40;14.50;;;21.70;99.90;;;;;;4982483;28;20315;-47
2022/07/21 12:23:26;;;;;;;18.00;13.82;;;21.80;99.90;;;;;;4999448;28;20104;-47
2022/07/21 12:25:53;;;;;;;12.88;11.05;;;21.70;99.90;;;;;;4999917;28;20074;-48
2022/07/21 12:28:19;;;;;;;11.23;9.75;;;21.70;99.90;;;;;;4999608;28;20093;-46
2022/07/21 12:30:50;;;;;;;12.23;10.40;;;22.30;99.90;;;;;;4980980;28;20793;-46
2022/07/21 12:33:27;;;;;;;10.97;9.23;;;22.00;99.90;;;;;;5002822;28;20041;-48
2022/07/21 12:36:05;;;;;;;16.05;14.45;;;21.80;99.90;;;;;;5005435;28;20052;-46
2022/07/21 12:38:41;;;;;;;24.00;20.88;;;22.00;99.90;;;;;;4988659;28;20045;-47
2022/07/21 12:41:10;;;;;;;13.38;12.07;;;22.00;99.90;;;;;;5001284;28;20050;-48
2022/07/21 12:43:36;;;;;;;12.70;9.50;;;22.20;99.90;;;;;;5000277;28;20052;-47
2022/07/21 12:46:07;;;;;;;10.65;7.00;;;21.90;99.90;;;;;;4982358;28;20487;-45
2022/07/21 12:48:36;;;;;;;10.80;6.60;;;21.80;99.90;;;;;;4982418;28;20057;-49
2022/07/21 12:51:06;;;;;;;10.52;6.43;;;21.60;99.90;;;;;;4999864;28;20129;-47
2022/07/21 12:53:34;;;;;;;11.77;7.10;;;21.50;99.90;;;;;;5000337;28;20339;-45
2022/07/21 12:56:02;;;;;;;7.63;5.50;;;21.30;99.90;;;;;;5000088;28;20042;-45
2022/07/21 12:58:28;;;;;;;7.90;5.32;;;21.30;99.90;;;;;;5000339;28;20052;-46
2022/07/21 13:00:54;;;;;;;11.95;5.95;;;21.10;99.90;;;;;;4999906;28;20506;-46
2022/07/21 13:03:22;;;;;;;7.47;5.47;;;21.00;99.90;;;;;;5004229;28;20041;-48
2022/07/21 13:05:48;;;;;;;6.45;4.72;;;21.10;99.90;;;;;;5007513;28;20046;-47
2022/07/21 13:08:13;;;;;;;9.70;5.65;;;20.90;99.90;;;;;;4999411;28;20056;-45